Time;durP1;ratioP1;P1;durP2;ratioP2;P2;SDS_P1;SDS_P2;PMS_P1;PMS_P2;Temp;Humidity;BMP_temperature;BMP_pressure;BME280_temperature;BME280_humidity;BME280_pressure;Samples;Min_cycle;Max_cycle;Signal;HPM_P1;HPM_P2
2023/08/17 00:00:14;;;;;;;7.50;3.35;;;;;;;20.49;70.67;101806.81;5114414;28;20029;-67
2023/08/17 00:02:42;;;;;;;9.40;2.80;;;;;;;20.41;70.54;101813.78;5114348;28;20458;-67
2023/08/17 00:05:08;;;;;;;4.80;2.65;;;;;;;20.38;70.94;101814.06;5115746;28;20046;-67
2023/08/17 00:07:34;;;;;;;6.13;2.70;;;;;;;20.43;70.96;101805.50;5115511;28;20028;-67
2023/08/17 00:10:00;;;;;;;5.05;2.85;;;;;;;20.37;71.13;101803.38;5115005;28;20042;-67
2023/08/17 00:12:25;;;;;;;11.93;3.00;;;;;;;20.34;71.10;101798.25;5115490;28;20434;-67
2023/08/17 00:14:51;;;;;;;5.53;2.88;;;;;;;20.36;71.27;101804.38;5114049;28;20041;-66
2023/08/17 00:17:17;;;;;;;6.47;3.05;;;;;;;20.22;71.45;101797.47;5115363;28;20414;-67
2023/08/17 00:19:42;;;;;;;5.55;2.38;;;;;;;20.20;71.76;101799.44;5113769;28;20060;-67
2023/08/17 00:22:08;;;;;;;5.60;3.20;;;;;;;20.24;71.56;101792.81;5115367;28;20168;-67
2023/08/17 00:24:33;;;;;;;5.07;2.78;;;;;;;20.30;71.57;101802.22;5114668;28;20028;-67
2023/08/17 00:27:01;;;;;;;8.57;3.40;;;;;;;20.16;72.04;101792.63;5113974;28;20345;-67
2023/08/17 00:29:26;;;;;;;5.00;2.70;;;;;;;20.20;72.01;101796.75;5115171;28;20027;-67
2023/08/17 00:31:52;;;;;;;4.50;3.20;;;;;;;20.20;71.77;101786.81;5114771;28;20028;-67
2023/08/17 00:34:21;;;;;;;4.70;3.00;;;;;;;20.25;71.51;101793.66;5113684;28;20390;-67
2023/08/17 00:36:46;;;;;;;12.73;3.10;;;;;;;20.30;71.75;101796.81;5113743;28;20467;-67
2023/08/17 00:39:11;;;;;;;7.13;3.10;;;;;;;20.13;71.85;101790.19;5113127;28;20020;-67
2023/08/17 00:41:37;;;;;;;5.82;2.70;;;;;;;20.10;72.11;101793.16;5113765;28;20023;-67
2023/08/17 00:44:02;;;;;;;10.25;3.20;;;;;;;20.16;72.00;101788.06;5114803;28;20449;-67
2023/08/17 00:46:30;;;;;;;7.65;3.58;;;;;;;20.17;71.75;101786.22;5114683;28;20032;-67
2023/08/17 00:48:56;;;;;;;7.00;3.28;;;;;;;20.05;72.12;101804.38;5113196;28;20493;-66
2023/08/17 00:51:26;;;;;;;5.60;3.20;;;;;;;20.00;72.32;101803.94;5113339;28;20034;-67
2023/08/17 00:53:54;;;;;;;7.07;3.03;;;;;;;20.00;72.20;101808.47;5114142;28;20020;-67
2023/08/17 00:56:20;;;;;;;5.93;3.10;;;;;;;20.02;72.47;101803.78;5114838;28;20103;-67
2023/08/17 00:58:46;;;;;;;6.88;3.17;;;;;;;19.89;72.83;101814.81;5113065;28;20020;-67
2023/08/17 01:01:15;;;;;;;8.55;3.63;;;;;;;19.89;72.13;101807.56;5114617;28;20073;-66
2023/08/17 01:03:43;;;;;;;5.45;3.13;;;;;;;19.94;72.04;101812.56;5113231;28;20016;-67
2023/08/17 01:06:09;;;;;;;6.30;3.28;;;;;;;19.87;72.06;101812.25;5114577;28;20031;-67
2023/08/17 01:08:37;;;;;;;4.40;3.00;;;;;;;19.88;72.18;101811.28;5114014;28;20034;-67
2023/08/17 01:11:24;;;;;;;4.43;2.80;;;;;;;20.06;71.62;101813.31;5113524;27;20027;-67
2023/08/17 01:14:09;;;;;;;7.28;2.92;;;;;;;19.96;72.28;101822.22;5113952;28;20368;-67
2023/08/17 01:16:42;;;;;;;7.28;3.08;;;;;;;19.87;71.67;101798.75;5114285;28;20038;-67
2023/08/17 01:19:12;;;;;;;10.50;3.28;;;;;;;19.77;72.27;101805.09;5112843;28;20043;-67
2023/08/17 01:21:50;;;;;;;5.55;2.85;;;;;;;19.85;71.85;101805.25;5114342;28;20019;-67
2023/08/17 01:24:15;;;;;;;7.15;2.95;;;;;;;19.71;72.21;101798.38;5112293;28;20470;-67
2023/08/17 01:26:41;;;;;;;6.63;2.95;;;;;;;19.87;72.21;101803.28;5112715;28;20016;-66
2023/08/17 01:29:07;;;;;;;5.93;2.95;;;;;;;19.78;71.95;101801.41;5113802;27;20055;-67
2023/08/17 01:31:47;;;;;;;8.68;3.17;;;;;;;19.63;72.61;101804.41;5113866;28;20501;-67
2023/08/17 01:34:23;;;;;;;7.97;3.17;;;;;;;19.69;72.92;101800.34;5112477;28;20024;-67
2023/08/17 01:36:53;;;;;;;7.10;3.20;;;;;;;19.65;72.87;101798.91;5113892;28;20401;-66
2023/08/17 01:39:22;;;;;;;5.80;3.03;;;;;;;19.51;73.68;101786.56;5112037;28;20031;-67
2023/08/17 01:41:48;;;;;;;5.55;3.03;;;;;;;19.62;73.41;101800.00;5113786;28;20107;-67
2023/08/17 01:44:13;;;;;;;6.18;3.42;;;;;;;19.59;73.46;101786.78;5111956;28;20045;-67
2023/08/17 01:46:39;;;;;;;6.80;3.10;;;;;;;19.63;73.80;101793.59;5113904;28;20015;-66
2023/08/17 01:49:04;;;;;;;9.18;3.33;;;;;;;19.60;73.73;101784.91;5113369;28;20047;-67
2023/08/17 01:51:32;;;;;;;5.55;3.08;;;;;;;19.57;73.72;101786.03;5113488;28;20386;-67
2023/08/17 01:53:58;;;;;;;7.45;3.58;;;;;;;19.53;74.41;101790.00;5111571;28;20497;-67
2023/08/17 01:56:23;;;;;;;9.18;3.58;;;;;;;19.43;74.94;101771.03;5112165;28;20015;-67
2023/08/17 01:58:48;;;;;;;5.20;3.67;;;;;;;19.46;74.75;101783.41;5113059;28;20034;-66
2023/08/17 02:01:14;;;;;;;6.35;3.03;;;;;;;19.45;74.67;101789.78;5113455;28;20020;-66
2023/08/17 02:03:39;;;;;;;4.78;3.20;;;;;;;19.47;74.86;101780.59;5113399;28;20019;-66
2023/08/17 02:06:05;;;;;;;6.32;3.15;;;;;;;19.46;75.02;101791.50;5113239;28;20374;-67
2023/08/17 02:08:30;;;;;;;8.15;3.42;;;;;;;19.43;74.82;101784.50;5112607;28;20043;-67
2023/08/17 02:10:58;;;;;;;5.90;3.35;;;;;;;19.35;75.37;101786.16;5113215;28;20111;-66
2023/08/17 02:13:27;;;;;;;5.57;3.20;;;;;;;19.34;75.24;101796.09;5112767;28;20068;-66
2023/08/17 02:15:52;;;;;;;6.95;3.17;;;;;;;19.42;75.28;101799.00;5113121;28;20497;-66
2023/08/17 02:18:18;;;;;;;5.60;3.10;;;;;;;19.38;75.53;101807.47;5111628;28;20015;-66
2023/08/17 02:20:43;;;;;;;8.52;3.40;;;;;;;19.47;75.00;101798.59;5111638;28;20082;-66
2023/08/17 02:23:09;;;;;;;6.95;3.28;;;;;;;19.32;75.89;101800.75;5113011;28;20168;-67
2023/08/17 02:25:38;;;;;;;7.40;3.33;;;;;;;19.28;75.78;101802.88;5111164;28;20015;-66
2023/08/17 02:28:07;;;;;;;8.27;3.60;;;;;;;19.26;76.04;101798.59;5112768;28;20028;-67
2023/08/17 02:30:32;;;;;;;7.90;3.35;;;;;;;19.30;76.04;101794.66;5111611;28;20072;-66
2023/08/17 02:32:58;;;;;;;7.97;4.15;;;;;;;19.15;75.82;101795.94;5112828;28;20090;-66
2023/08/17 02:35:23;;;;;;;7.63;4.15;;;;;;;19.32;75.52;101792.66;5112773;28;20031;-67
2023/08/17 02:37:49;;;;;;;6.18;3.15;;;;;;;19.29;74.84;101795.63;5112816;28;20066;-66
2023/08/17 02:40:14;;;;;;;7.50;3.25;;;;;;;19.24;75.09;101796.03;5112087;28;20023;-66
2023/08/17 02:42:39;;;;;;;5.22;3.30;;;;;;;19.23;74.96;101794.31;5112934;28;20015;-66
2023/08/17 02:45:06;;;;;;;6.22;3.10;;;;;;;19.04;75.07;101780.69;5112646;28;20394;-66
2023/08/17 02:47:32;;;;;;;5.10;3.20;;;;;;;19.18;74.55;101791.16;5112874;27;20470;-66
2023/08/17 02:49:57;;;;;;;7.15;3.17;;;;;;;19.27;74.36;101792.22;5111078;28;20030;-66
2023/08/17 02:52:23;;;;;;;7.22;3.35;;;;;;;19.17;74.57;101784.03;5112518;28;20038;-66
2023/08/17 02:54:48;;;;;;;9.90;3.45;;;;;;;19.21;74.14;101785.50;5111854;28;20016;-66
2023/08/17 02:57:14;;;;;;;7.88;3.20;;;;;;;19.32;73.86;101791.81;5111231;28;20020;-66
2023/08/17 02:59:39;;;;;;;5.53;3.15;;;;;;;19.22;74.16;101787.22;5112576;28;20034;-66
2023/08/17 03:02:04;;;;;;;6.78;3.08;;;;;;;19.27;73.57;101781.44;5111337;28;20016;-66
2023/08/17 03:04:30;;;;;;;8.43;2.85;;;;;;;19.31;73.80;101782.03;5111143;28;20565;-67
2023/08/17 03:06:55;;;;;;;6.90;3.40;;;;;;;19.23;73.80;101777.28;5112447;28;20040;-66
2023/08/17 03:09:21;;;;;;;6.47;3.00;;;;;;;19.28;73.89;101783.13;5110478;28;20016;-67
2023/08/17 03:11:46;;;;;;;5.45;3.13;;;;;;;19.33;73.57;101782.75;5111164;28;20527;-66
2023/08/17 03:14:12;;;;;;;7.38;2.83;;;;;;;19.16;73.94;101770.69;5112268;28;20035;-66
2023/08/17 03:16:37;;;;;;;5.50;3.08;;;;;;;19.22;73.97;101781.81;5112690;28;20047;-66
2023/08/17 03:19:04;;;;;;;6.47;2.80;;;;;;;19.25;73.85;101780.69;5112296;28;20039;-66
2023/08/17 03:21:29;;;;;;;7.85;3.20;;;;;;;19.21;74.14;101781.97;5111108;28;20034;-66
2023/08/17 03:23:54;;;;;;;7.38;3.60;;;;;;;19.04;73.89;101773.44;5111599;28;20023;-66
2023/08/17 03:26:20;;;;;;;5.65;3.10;;;;;;;19.05;73.16;101775.13;5112439;28;20019;-66
2023/08/17 03:28:45;;;;;;;6.30;2.92;;;;;;;19.04;73.05;101784.22;5111001;28;20181;-66
2023/08/17 03:31:10;;;;;;;5.07;2.80;;;;;;;19.00;72.90;101779.19;5112271;28;20454;-66
2023/08/17 03:33:36;;;;;;;3.88;2.63;;;;;;;19.05;72.92;101779.69;5114256;28;20028;-66
2023/08/17 03:36:02;;;;;;;5.15;2.88;;;;;;;19.10;73.02;101776.63;5116107;28;20019;-66
2023/08/17 03:38:28;;;;;;;5.40;2.90;;;;;;;18.99;73.95;101774.81;5115473;28;20020;-66
2023/08/17 03:40:54;;;;;;;4.60;3.03;;;;;;;19.05;73.58;101775.13;5116180;28;20153;-66
2023/08/17 03:43:21;;;;;;;8.30;3.20;;;;;;;19.01;74.05;101772.84;5116025;28;20069;-66
2023/08/17 03:45:49;;;;;;;7.15;3.63;;;;;;;19.06;73.86;101771.47;5116026;28;20467;-66
2023/08/17 03:48:18;;;;;;;4.90;3.13;;;;;;;18.92;73.69;101762.84;5115855;28;20068;-66
2023/08/17 03:50:44;;;;;;;3.33;2.83;;;;;;;19.06;73.46;101770.63;5115754;28;20038;-66
2023/08/17 03:53:11;;;;;;;6.88;3.30;;;;;;;19.05;73.71;101780.53;5115724;28;20023;-66
2023/08/17 03:55:37;;;;;;;5.45;3.33;;;;;;;19.09;73.98;101773.06;5115557;28;20027;-66
2023/08/17 03:58:05;;;;;;;5.47;3.10;;;;;;;19.06;74.28;101773.31;5115778;28;20093;-66
2023/08/17 04:00:30;;;;;;;6.57;3.50;;;;;;;18.96;74.68;101780.47;5114309;28;20036;-66
2023/08/17 04:02:56;;;;;;;7.25;3.28;;;;;;;19.00;74.47;101782.78;5115649;28;20026;-66
2023/08/17 04:05:21;;;;;;;5.40;3.80;;;;;;;18.82;74.96;101782.47;5115520;28;20023;-66
2023/08/17 04:07:47;;;;;;;5.70;3.35;;;;;;;18.79;75.55;101787.25;5115250;28;20107;-66
2023/08/17 04:10:12;;;;;;;6.28;3.40;;;;;;;18.75;75.57;101788.50;5115057;28;20530;-66
2023/08/17 04:12:38;;;;;;;6.80;3.60;;;;;;;18.71;75.70;101795.09;5114354;28;20039;-66
2023/08/17 04:15:04;;;;;;;6.40;3.42;;;;;;;18.85;75.43;101797.50;5115198;28;20030;-66
2023/08/17 04:17:29;;;;;;;6.38;3.17;;;;;;;18.74;75.73;101787.66;5114199;28;20027;-66
2023/08/17 04:19:54;;;;;;;5.88;3.67;;;;;;;18.76;75.89;101799.13;5113698;28;20082;-66
2023/08/17 04:22:20;;;;;;;6.28;3.70;;;;;;;18.60;76.35;101798.66;5115104;28;20435;-66
2023/08/17 04:24:45;;;;;;;7.43;3.58;;;;;;;18.55;76.67;101793.63;5113403;28;20019;-66
2023/08/17 04:27:12;;;;;;;6.40;3.25;;;;;;;18.67;76.39;101797.16;5115216;28;20035;-66
2023/08/17 04:29:38;;;;;;;5.32;3.42;;;;;;;18.68;76.15;101798.91;5115340;28;20520;-66
2023/08/17 04:32:04;;;;;;;3.95;2.90;;;;;;;18.65;76.36;101800.97;5113825;28;20028;-66
2023/08/17 04:34:29;;;;;;;8.18;3.38;;;;;;;18.61;77.01;101811.16;5113624;28;20038;-66
2023/08/17 04:36:55;;;;;;;9.57;3.67;;;;;;;18.51;76.56;101797.56;5113623;28;20108;-66
2023/08/17 04:39:22;;;;;;;7.90;3.60;;;;;;;18.48;77.15;101807.75;5114461;28;20060;-66
2023/08/17 04:41:48;;;;;;;9.18;3.92;;;;;;;18.48;76.81;101808.59;5113696;28;20024;-66
2023/08/17 04:44:14;;;;;;;5.93;3.38;;;;;;;18.59;76.75;101803.22;5113787;28;20034;-66
2023/08/17 04:46:39;;;;;;;6.53;3.78;;;;;;;18.44;77.20;101803.56;5114875;28;20094;-66
2023/08/17 04:49:04;;;;;;;7.90;3.42;;;;;;;18.41;77.51;101803.81;5113148;28;20180;-66
2023/08/17 04:51:32;;;;;;;4.22;3.40;;;;;;;18.39;77.11;101799.44;5113241;28;20027;-66
2023/08/17 04:53:58;;;;;;;8.20;3.80;;;;;;;18.36;77.49;101798.84;5114038;28;20442;-66
2023/08/17 04:56:24;;;;;;;8.13;3.50;;;;;;;18.29;77.91;101802.97;5113260;28;20062;-66
2023/08/17 04:58:49;;;;;;;7.80;4.15;;;;;;;18.28;77.97;101799.44;5113128;28;20183;-66
2023/08/17 05:01:14;;;;;;;6.93;3.50;;;;;;;18.34;77.63;101806.16;5114442;28;20378;-66
2023/08/17 05:03:40;;;;;;;6.13;3.78;;;;;;;18.31;77.77;101801.88;5113116;28;20019;-66
2023/08/17 05:06:08;;;;;;;7.45;3.65;;;;;;;18.27;77.54;101788.81;5114371;28;20031;-66
2023/08/17 05:08:33;;;;;;;5.70;3.10;;;;;;;18.42;77.25;101802.88;5113852;28;20440;-66
2023/08/17 05:10:59;;;;;;;7.05;3.70;;;;;;;18.31;77.70;101801.88;5113096;28;20035;-66
2023/08/17 05:13:24;;;;;;;7.97;3.58;;;;;;;18.28;77.43;101785.13;5114225;28;20020;-66
2023/08/17 05:15:52;;;;;;;8.70;3.80;;;;;;;18.23;77.75;101785.47;5112949;28;20035;-66
2023/08/17 05:18:17;;;;;;;8.63;3.38;;;;;;;18.23;77.70;101790.00;5112875;28;20031;-66
2023/08/17 05:20:43;;;;;;;6.32;3.58;;;;;;;18.29;77.60;101798.44;5112279;28;20044;-66
2023/08/17 05:23:08;;;;;;;7.28;3.50;;;;;;;18.33;77.54;101789.16;5112878;28;20048;-66
2023/08/17 05:25:34;;;;;;;9.73;3.60;;;;;;;18.32;77.69;101797.34;5113493;28;20034;-66
2023/08/17 05:27:59;;;;;;;6.32;3.60;;;;;;;18.34;77.49;101798.94;5112682;28;20406;-66
2023/08/17 05:30:24;;;;;;;8.63;4.57;;;;;;;18.37;77.93;101795.16;5113928;27;20019;-66
2023/08/17 05:32:50;;;;;;;4.75;3.47;;;;;;;18.39;77.53;101796.75;5112490;28;20028;-66
2023/08/17 05:35:16;;;;;;;5.63;3.38;;;;;;;18.41;77.36;101793.06;5095210;28;20038;-66
2023/08/17 05:37:41;;;;;;;7.70;3.67;;;;;;;18.44;77.29;101804.44;5113854;28;20029;-66
2023/08/17 05:40:08;;;;;;;11.55;3.67;;;;;;;18.34;77.22;101793.56;5112018;28;20115;-66
2023/08/17 05:42:34;;;;;;;5.53;3.40;;;;;;;18.33;77.63;101797.25;5113784;28;20065;-66
2023/08/17 05:44:59;;;;;;;9.07;3.70;;;;;;;18.35;77.37;101803.38;5112152;28;20027;-66
2023/08/17 05:47:27;;;;;;;9.57;3.88;;;;;;;18.36;77.34;101805.06;5113581;28;20077;-66
2023/08/17 05:49:52;;;;;;;7.72;3.80;;;;;;;18.26;78.13;101806.78;5113115;28;20107;-66
2023/08/17 05:52:18;;;;;;;4.18;3.70;;;;;;;18.44;77.87;101807.13;5113384;28;20575;-66
2023/08/17 05:54:43;;;;;;;9.75;3.95;;;;;;;18.46;77.00;101805.16;5111613;28;20024;-66
2023/08/17 05:57:10;;;;;;;10.35;3.95;;;;;;;18.44;77.14;101809.81;5112019;28;20408;-66
2023/08/17 05:59:37;;;;;;;6.70;3.55;;;;;;;18.56;76.74;101799.88;5111916;28;20466;-66
2023/08/17 06:02:03;;;;;;;7.05;4.05;;;;;;;18.53;77.29;101811.78;5113279;28;20028;-66
2023/08/17 06:04:28;;;;;;;5.50;3.65;;;;;;;18.61;77.14;101813.84;5112885;28;20033;-66
2023/08/17 06:06:54;;;;;;;10.30;4.00;;;;;;;18.60;77.21;101807.59;5111897;28;20106;-66
2023/08/17 06:09:20;;;;;;;6.95;3.70;;;;;;;18.69;77.17;101819.47;5112751;28;20023;-67
2023/08/17 06:11:45;;;;;;;8.30;3.78;;;;;;;18.73;77.16;101818.25;5113143;28;20526;-66
2023/08/17 06:14:11;;;;;;;9.40;4.28;;;;;;;18.81;77.05;101818.50;5112927;28;20027;-66
2023/08/17 06:16:36;;;;;;;11.18;4.35;;;;;;;18.84;76.62;101818.22;5111799;28;20047;-67
2023/08/17 06:19:02;;;;;;;8.43;4.10;;;;;;;18.87;77.01;101825.22;5110901;28;20054;-66
2023/08/17 06:21:27;;;;;;;8.43;4.38;;;;;;;18.83;76.65;101813.84;5112804;28;20023;-67
2023/08/17 06:23:53;;;;;;;8.68;4.40;;;;;;;18.89;76.33;101819.72;5110691;28;20027;-66
2023/08/17 06:26:18;;;;;;;8.10;4.45;;;;;;;18.81;76.44;101817.63;5112458;28;20019;-67
2023/08/17 06:28:43;;;;;;;6.88;4.50;;;;;;;18.65;76.92;101820.72;5112489;28;20023;-66
2023/08/17 06:31:09;;;;;;;6.78;4.63;;;;;;;18.61;77.41;101817.38;5111404;28;20481;-66
2023/08/17 06:33:34;;;;;;;6.50;4.00;;;;;;;18.60;77.50;101809.44;5112450;28;20027;-67
2023/08/17 06:36:00;;;;;;;9.35;4.40;;;;;;;18.71;77.60;101809.44;5112449;28;20023;-67
2023/08/17 06:38:25;;;;;;;6.82;4.47;;;;;;;18.83;77.19;101821.91;5110858;28;20020;-67
2023/08/17 06:40:52;;;;;;;6.60;4.65;;;;;;;18.73;77.57;101828.16;5110964;28;20466;-67
2023/08/17 06:43:18;;;;;;;10.63;4.40;;;;;;;18.82;77.39;101833.69;5111085;28;20614;-67
2023/08/17 06:45:43;;;;;;;11.95;5.13;;;;;;;18.93;77.17;101819.31;5110818;28;20061;-66
2023/08/17 06:48:11;;;;;;;9.02;5.45;;;;;;;18.89;77.16;101825.09;5112097;28;20100;-67
2023/08/17 06:50:37;;;;;;;9.73;5.43;;;;;;;19.02;76.67;101825.78;5112529;28;20028;-67
2023/08/17 06:53:02;;;;;;;10.43;4.90;;;;;;;19.12;76.82;101836.66;5110971;28;20054;-67
2023/08/17 06:55:28;;;;;;;8.23;4.55;;;;;;;19.05;77.20;101833.63;5111758;28;20024;-67
2023/08/17 06:57:54;;;;;;;7.38;4.47;;;;;;;19.01;76.42;101822.22;5112163;28;20059;-67
2023/08/17 07:00:20;;;;;;;6.22;4.22;;;;;;;18.95;76.91;101828.13;5111905;28;20028;-67
2023/08/17 07:02:47;;;;;;;7.80;5.07;;;;;;;18.97;76.90;101823.47;5111996;28;20039;-67
2023/08/17 07:05:15;;;;;;;10.50;4.40;;;;;;;19.03;77.22;101824.78;5110668;28;20035;-67
2023/08/17 07:07:40;;;;;;;10.52;4.97;;;;;;;19.10;77.09;101831.41;5111436;28;20042;-67
2023/08/17 07:10:08;;;;;;;9.40;4.80;;;;;;;19.10;76.86;101831.41;5114632;28;20335;-67
2023/08/17 07:12:34;;;;;;;10.60;4.85;;;;;;;19.04;77.09;101831.91;5116229;27;20539;-67
2023/08/17 07:14:59;;;;;;;9.80;4.93;;;;;;;19.07;77.13;101837.03;5114821;28;20023;-66
2023/08/17 07:17:24;;;;;;;13.48;4.80;;;;;;;19.14;77.54;101834.69;5114665;28;20027;-66
2023/08/17 07:19:50;;;;;;;10.90;4.75;;;;;;;19.09;77.21;101832.38;5115745;27;20053;-66
2023/08/17 07:22:18;;;;;;;8.63;4.88;;;;;;;19.14;78.11;101832.00;5116136;28;20034;-66
2023/08/17 07:24:43;;;;;;;11.65;4.95;;;;;;;19.11;77.08;101824.16;5115612;28;20108;-66
2023/08/17 07:27:09;;;;;;;9.57;5.25;;;;;;;19.14;76.69;101835.53;5114570;28;20440;-66
2023/08/17 07:29:34;;;;;;;8.00;4.85;;;;;;;19.15;76.56;101833.69;5115924;28;20035;-66
2023/08/17 07:32:01;;;;;;;10.43;5.18;;;;;;;19.06;77.02;101829.94;5115753;28;20031;-66
2023/08/17 07:34:28;;;;;;;9.23;4.45;;;;;;;19.16;77.98;101830.03;5115896;28;20027;-66
2023/08/17 07:36:53;;;;;;;8.45;5.20;;;;;;;19.17;77.22;101840.66;5097608;28;20019;-67
2023/08/17 07:39:19;;;;;;;7.95;4.63;;;;;;;19.28;77.56;101837.09;5113970;28;20024;-66
2023/08/17 07:41:44;;;;;;;7.63;4.53;;;;;;;19.16;76.80;101830.88;5115759;28;20072;-66
2023/08/17 07:44:10;;;;;;;6.57;4.57;;;;;;;19.29;76.33;101841.47;5114220;28;20118;-67
2023/08/17 07:46:35;;;;;;;10.32;5.43;;;;;;;19.34;76.29;101838.41;5114230;28;20032;-66
2023/08/17 07:49:00;;;;;;;10.50;4.82;;;;;;;19.44;76.28;101839.31;5114158;28;20100;-66
2023/08/17 07:51:26;;;;;;;10.68;4.65;;;;;;;19.44;76.16;101836.63;5115670;28;20103;-67
2023/08/17 07:53:51;;;;;;;8.18;4.72;;;;;;;19.48;75.75;101838.94;5114937;28;20031;-67
2023/08/17 07:56:17;;;;;;;8.70;4.43;;;;;;;19.45;76.40;101846.47;5115508;28;20122;-66
2023/08/17 07:58:42;;;;;;;9.32;4.53;;;;;;;19.49;75.67;101842.50;5115165;28;20543;-66
2023/08/17 08:01:07;;;;;;;8.65;4.43;;;;;;;19.42;75.91;101849.41;5115329;28;20327;-66
2023/08/17 08:03:35;;;;;;;5.68;4.82;;;;;;;19.33;75.77;101845.66;5113880;28;20157;-67
2023/08/17 08:06:01;;;;;;;8.60;5.03;;;;;;;19.26;76.05;101833.66;5114070;28;20024;-66
2023/08/17 08:08:26;;;;;;;8.95;4.70;;;;;;;19.43;76.15;101846.56;5115042;28;20367;-67
2023/08/17 08:10:55;;;;;;;9.55;4.68;;;;;;;19.46;75.69;101854.41;5115459;28;20024;-66
2023/08/17 08:13:21;;;;;;;8.15;4.38;;;;;;;19.48;74.97;101832.72;5114095;28;20125;-67
2023/08/17 08:15:46;;;;;;;6.95;4.40;;;;;;;19.50;75.73;101844.19;5113801;28;20059;-66
2023/08/17 08:18:11;;;;;;;7.50;4.65;;;;;;;19.56;74.73;101838.31;5115286;28;20020;-67
2023/08/17 08:20:37;;;;;;;10.68;4.93;;;;;;;19.55;75.88;101835.72;5115179;28;20065;-66
2023/08/17 08:23:03;;;;;;;8.77;4.22;;;;;;;19.63;74.95;101831.38;5115254;28;20509;-67
2023/08/17 08:25:28;;;;;;;8.05;4.45;;;;;;;19.70;75.18;101838.00;5114695;28;20497;-66
2023/08/17 08:27:54;;;;;;;9.73;4.72;;;;;;;19.70;75.36;101835.28;5115056;28;20068;-67
2023/08/17 08:30:21;;;;;;;8.13;4.45;;;;;;;19.66;74.73;101846.50;5114827;28;20028;-66
2023/08/17 08:32:47;;;;;;;10.88;5.47;;;;;;;19.65;74.47;101837.56;5115076;28;20496;-66
2023/08/17 08:35:12;;;;;;;10.40;4.75;;;;;;;19.74;74.95;101842.16;5114885;28;20027;-66
2023/08/17 08:37:38;;;;;;;10.88;4.93;;;;;;;19.72;75.15;101838.72;5115222;28;20474;-67
2023/08/17 08:40:04;;;;;;;7.28;4.95;;;;;;;19.76;75.61;101835.75;5114229;28;20427;-67
2023/08/17 08:42:29;;;;;;;8.10;4.68;;;;;;;19.69;74.87;101844.38;5113720;28;20031;-67
2023/08/17 08:44:55;;;;;;;9.18;4.93;;;;;;;19.50;74.97;101842.38;5114520;28;20020;-67
2023/08/17 08:47:23;;;;;;;13.27;5.10;;;;;;;19.57;75.18;101839.16;5113517;28;20038;-67
2023/08/17 08:49:58;;;;;;;10.48;4.90;;;;;;;19.60;74.96;101841.59;5114574;28;20077;-67
2023/08/17 08:52:32;;;;;;;10.40;5.07;;;;;;;19.56;76.55;101841.00;5114773;28;20034;-66
2023/08/17 08:54:59;;;;;;;9.57;5.03;;;;;;;19.54;75.60;101834.03;5114166;28;20031;-66
2023/08/17 08:57:28;;;;;;;6.85;4.45;;;;;;;19.48;76.00;101830.84;5114380;28;20031;-67
2023/08/17 08:59:53;;;;;;;;;;;;;;;19.74;74.75;101830.50;5114861;28;20023;-67
2023/08/17 09:02:19;;;;;;;12.73;5.13;;;;;;;19.57;76.12;101822.97;5114474;28;19908;-66
2023/08/17 09:04:45;;;;;;;9.75;4.70;;;;;;;19.56;76.03;101832.91;5114392;28;20493;-66
2023/08/17 09:07:12;;;;;;;6.75;5.07;;;;;;;19.58;75.68;101822.81;5114292;27;20031;-66
2023/08/17 09:09:37;;;;;;;6.78;4.85;;;;;;;19.62;76.07;101828.81;5113869;28;20032;-66
2023/08/17 09:12:04;;;;;;;8.70;5.30;;;;;;;19.58;76.01;101817.44;5114009;28;20367;-67
2023/08/17 09:14:29;;;;;;;10.80;5.28;;;;;;;19.63;76.33;101823.28;5114296;28;20053;-67
2023/08/17 09:16:58;;;;;;;11.27;5.55;;;;;;;19.55;75.27;101820.38;5114151;28;20024;-67
2023/08/17 09:19:24;;;;;;;12.50;6.55;;;;;;;19.44;75.81;101818.63;5112559;28;20506;-67
2023/08/17 09:21:52;;;;;;;8.07;5.75;;;;;;;19.41;76.11;101831.50;5112886;28;20070;-67
2023/08/17 09:24:19;;;;;;;11.55;6.13;;;;;;;19.36;76.53;101823.81;5112211;28;20385;-67
2023/08/17 09:26:49;;;;;;;15.40;6.20;;;;;;;19.51;76.37;101829.75;5113874;28;20094;-67
2023/08/17 09:29:18;;;;;;;;;;;;;;;19.71;75.78;101828.94;5112996;28;20019;-67
2023/08/17 09:31:43;;;;;;;;;;;;;;;19.73;75.75;101829.63;5112451;28;20281;-67
2023/08/17 09:34:08;;;;;;;10.98;6.93;;;;;;;19.39;76.78;101828.94;5113792;28;19907;-67
2023/08/17 09:36:36;;;;;;;13.68;7.65;;;;;;;19.36;77.02;101825.66;5113774;28;20026;-67
2023/08/17 09:39:03;;;;;;;11.70;7.07;;;;;;;19.34;77.29;101822.22;5111926;28;20463;-67
2023/08/17 09:41:28;;;;;;;13.45;6.93;;;;;;;19.38;77.10;101823.66;5112327;28;20015;-67
2023/08/17 09:43:57;;;;;;;14.68;6.93;;;;;;;19.41;76.82;101818.00;5113644;28;20016;-67
2023/08/17 09:46:23;;;;;;;17.88;7.25;;;;;;;19.50;77.52;101826.19;5113736;28;20481;-67
2023/08/17 09:48:49;;;;;;;16.63;8.13;;;;;;;19.49;77.28;101820.91;5111982;28;20392;-67
2023/08/17 09:51:16;;;;;;;18.73;8.52;;;;;;;19.35;77.29;101832.03;5112224;28;20019;-67
2023/08/17 09:53:41;;;;;;;15.43;8.60;;;;;;;19.27;77.13;101811.09;5112961;28;20027;-67
2023/08/17 09:56:10;;;;;;;17.75;8.05;;;;;;;19.28;76.95;101819.06;5113329;28;20026;-67
2023/08/17 09:58:37;;;;;;;16.23;8.75;;;;;;;19.26;77.74;101820.16;5113509;28;20027;-66
2023/08/17 10:01:07;;;;;;;16.50;8.43;;;;;;;19.23;77.82;101818.56;5112057;28;20051;-67
2023/08/17 10:03:37;;;;;;;16.55;8.80;;;;;;;19.20;78.46;101807.19;5113208;28;20387;-67
2023/08/17 10:06:09;;;;;;;23.92;10.05;;;;;;;19.32;78.88;101818.78;5111969;28;20475;-67
2023/08/17 10:08:47;;;;;;;18.00;9.52;;;;;;;19.32;77.94;101808.84;5112646;28;20031;-67
2023/08/17 10:11:16;;;;;;;16.13;10.20;;;;;;;19.24;78.55;101798.72;5111739;28;20412;-66
2023/08/17 10:13:53;;;;;;;17.70;9.05;;;;;;;19.23;78.49;101805.09;5094984;28;20027;-67
2023/08/17 10:16:26;;;;;;;16.63;9.43;;;;;;;19.31;78.65;101804.44;5111876;28;20027;-67
2023/08/17 10:18:58;;;;;;;17.60;10.00;;;;;;;19.34;78.83;101789.84;5112582;28;20024;-67
2023/08/17 10:21:48;;;;;;;16.50;9.57;;;;;;;19.46;78.67;101799.59;5112816;28;20481;-67
2023/08/17 10:24:14;;;;;;;18.63;10.07;;;;;;;19.35;78.96;101794.25;5110564;28;20462;-67
2023/08/17 10:26:41;;;;;;;14.93;9.73;;;;;;;19.39;78.92;101783.09;5112858;27;20037;-67
2023/08/17 10:29:07;;;;;;;13.70;9.52;;;;;;;19.37;78.99;101781.50;5111454;28;20060;-67
2023/08/17 10:31:34;;;;;;;18.83;10.50;;;;;;;19.46;78.91;101794.19;5112679;28;20020;-67
2023/08/17 10:34:00;;;;;;;17.70;9.68;;;;;;;19.56;78.71;101792.44;5112452;28;20062;-67
2023/08/17 10:36:26;;;;;;;18.05;9.98;;;;;;;19.51;78.63;101792.81;5111245;28;20073;-67
2023/08/17 10:39:20;;;;;;;17.50;9.40;;;;;;;19.64;78.24;101791.75;5110321;28;20027;-67
2023/08/17 10:41:51;;;;;;;17.25;8.50;;;;;;;19.56;78.66;101799.66;5112148;28;20050;-67
2023/08/17 10:44:38;;;;;;;15.40;9.50;;;;;;;19.62;77.93;101802.69;5111849;28;20447;-67
2023/08/17 10:47:32;;;;;;;15.18;9.32;;;;;;;19.72;78.21;101803.63;5112454;28;20023;-67
2023/08/17 10:50:22;;;;;;;21.17;8.90;;;;;;;19.73;78.28;101790.97;5094558;28;20036;-67
2023/08/17 10:52:48;;;;;;;17.02;9.80;;;;;;;19.68;77.89;101794.09;5112288;28;20016;-67
2023/08/17 10:55:14;;;;;;;15.10;9.30;;;;;;;19.69;78.11;101794.94;5111583;28;20437;-67
2023/08/17 10:57:41;;;;;;;14.18;9.70;;;;;;;19.76;78.36;101790.72;5112300;28;20106;-67
2023/08/17 11:00:17;;;;;;;14.55;9.68;;;;;;;19.80;77.89;101794.03;5110923;28;20050;-67
2023/08/17 11:02:52;;;;;;;15.77;9.23;;;;;;;19.83;77.92;101788.34;5112287;28;20024;-67
2023/08/17 11:05:33;;;;;;;13.02;9.65;;;;;;;20.01;77.73;101783.19;5110930;28;20031;-67
2023/08/17 11:08:01;;;;;;;17.55;10.65;;;;;;;20.04;77.36;101789.16;5111856;28;20063;-67
2023/08/17 11:10:29;;;;;;;13.75;9.70;;;;;;;20.06;78.33;101792.59;5111510;28;20023;-67
2023/08/17 11:12:59;;;;;;;14.73;9.82;;;;;;;20.12;78.15;101783.09;5112185;28;20042;-67
2023/08/17 11:15:44;;;;;;;18.88;10.57;;;;;;;20.17;77.29;101795.19;5112464;28;20068;-66
2023/08/17 11:18:11;;;;;;;16.80;10.65;;;;;;;20.16;77.78;101792.63;5112240;28;20111;-67
2023/08/17 11:20:39;;;;;;;17.83;10.60;;;;;;;20.11;77.40;101795.72;5111971;28;20043;-67
2023/08/17 11:23:06;;;;;;;18.08;10.40;;;;;;;20.15;77.19;101797.19;5111802;28;20030;-66